Boizenburg, Germany

10:40 PM CEST on March 30, 2015 (GMT +0200)
Fitzen | | Change Station
CLOSE
Current Station
Personal Weather Station
Location: Fitzen, SCHLESWIG-HOLSTEIN
Elevation: 66 ft
Nearby Weather Stations

Elev 66 ft 53.51 °N, 10.64 °E | Updated 5 minutes ago

Scattered Clouds
Scattered Clouds
40.4 °F
Feels Like 36 °F
N
6.0
Wind Variable Wind from West
Gusts 10.0 mph

Today
High -- | Low -- °F
--% Chance of Precip.
Yesterday
High -- | Low -- °F
Precip. -- in
6:56 AM 7:48 PM
Waxing Gibbous, 82% visible
Pressure 29.62 in
Visibility 6.2 miles
Clouds Few 2500 ft
Scattered Clouds 5000 ft
Windchill 36 °F
Dew Point 34 °F
Humidity 79%
Rainfall 0.27 in
Snow Depth Not available.
UV 0 out of 12
Pollen Not available.
Air Quality Not available.
Flu Activity Not available.
METAR EDDH 302020Z 25010KT 9999 FEW025 SCT050 05/01 Q1003 NOSIG

More Conditions Fewer Conditions

Pressure 29.62 in
Visibility 6.2 miles
Clouds Few 2500 ft
Scattered Clouds 5000 ft
Windchill 36 °F
Dew Point 34 °F
Humidity 79%
Rainfall 0.27 in
Snow Depth Not available.
UV 0 out of 12
Pollen Not available.
Air Quality Not available.
Flu Activity Not available.
METAR EDDH 302020Z 25010KT 9999 FEW025 SCT050 05/01 Q1003 NOSIG

More Conditions Fewer Conditions

10-Day Weather Forecast

Almanac

Astronomy

Mar. 30, 2015 Rise Set
Actual Time
Civil Twilight
Nautical Twilight
Astronomical Twilight
Moon
Length of Visible Light
Length of Day
Tomorrow will be .
, % of the Moon is Illuminated

Today's Extremes

Country Highs Country Lows

Community

WunderPhotos

Upload Photos

1,809,584 photos uploaded!

WunderBlogs® & News

Nearby

Air Quality

  Air Quality AQ Index Pollutant
Not available.

Snow Depth

Station Depth Elevation

Earthquake Activity

City Distance Mag. Time & Date
Minimum magnitude displayed is 2.5.

Coastal Water Temperatures

Place Temperature

Stations

Nearby Weather Stations

Station Location Temp. Windchill Dew Point Humidity Wind Precip. Elev Updated Type